Portada
METAR-TAF:

METAR-TAF

Aeropuertos :

Aeropuerto de Yakutsk

Yakutsk, Rusia

latitud: 62-01N, longitud: 129-43E, altitud: 103 m

Observación

El informe se hizo hace 22 minutos, a las 13:30 UTC
Viento 4 kt del norte
Temperatura -40°C
Humedad 58%
Presión 1020 hPa
Visibilidad: 5000 m
poca nieve, neblina

METAR: UEEE 181330Z 36002MPS 5000 -SN BR NSC M40/M45 Q1020 R23L/490145 NOSIG RMK QFE756

Hora: 22:52 (13:52 UTC)

Pronóstico

El informe se hizo hace 2 horas y 52 minutos, a las 11:00 UTC
Pronóstico válido del 18 a las 12 UTC al 19 a las 18 UTC
Viento 2 kt con dirección variable
Visibilidad: 3200 m
neblina
Temporalmente
del 18 a las 12 UTC al 19 a las 03 UTC
Visibilidad: 0300 m
a una altura de 300 ft
niebla

TAF: UEEE 181100Z 1812/1918 VRB01MPS 3200 BR NSC TXM36/1906Z TNM41/1823Z TEMPO 1812/1903 0300 FG VV003

Observaciones y pronósticos meteorológicos de más de 4000 aeropuertos (mensajes METAR y TAF).

Los puntos amarillos y rojos representan las estaciones disponibles.

Ponga el ratón en el punto deseado para ver el nombre de la estación.

Haga clic para ver las observaciones y los pronósticos meteorológicos.

Para cambiar el mapa : haga clic en los botones verdes con una cruz de color negro para hacer un zoom, en el botón verde con un guión para alejar o en las flechas verdes para mapas adyacentes.


METAR-TAF: